Rolla, MO (65401)

2:33 PM CST on December 07, 2016 (GMT -0600)
Rolla | | Change Station

Elev 1043 ft 37.94 °N, 91.76 °W | Updated 44 seconds ago

Overcast
Overcast
36.3 °F
Feels Like 36 °F
N
0.0
Wind Variable Wind from SE
Gusts 0.0 mph

Today
High -- | Low -- °F
--% Chance of Precip.
Yesterday
High -- | Low -- °F
Precip. -- in
Pressure 30.23 in
Visibility 10.0 miles
Clouds Overcast 8000 ft
Windchill 36 °F
Dew Point -12 °F
Humidity 12%
Rainfall Not available.
Snow Depth Not available.
7:10 AM 4:47 PM
First Quarter, 55% visible
METAR KVIH 071953Z AUTO 34009KT 10SM OVC080 01/M08 A3020 RMK AO2 SLP236 T00111083
Pressure 30.23 in
Visibility 10.0 miles
Clouds Overcast 8000 ft
Windchill 36 °F
Dew Point -12 °F
Humidity 12%
Rainfall Not available.
Snow Depth Not available.
7:10 AM 4:47 PM
First Quarter, 55% visible
METAR KVIH 071953Z AUTO 34009KT 10SM OVC080 01/M08 A3020 RMK AO2 SLP236 T00111083

10-Day Weather Forecast

Almanac

Astronomy

Dec. 07, 2016 Rise Set
Actual Time
Civil Twilight
Nautical Twilight
Astronomical Twilight
Moon
Length of Visible Light
Length of Day
Tomorrow will be .
, % of the Moon is Illuminated

Today's Extremes

State Highs State Lows

Community

WunderPhotos

Upload Photos

1,956,170 photos uploaded!

WunderBlog® & News

Nearby

Air Quality

  Air Quality AQ Index Pollutant
Not available.

Snow Depth

Station Depth Elevation

Earthquake Activity

City Distance Mag. Time & Date
Minimum magnitude displayed is 2.5.

Coastal Water Temperatures

Place Temperature

Stations

Nearby Weather Stations

Station Location Temp. Windchill Dew Point Humidity Wind Precip. Elev Updated Type
                   

Watches & Warnings

There are currently no watches in effect.